Time;durP1;ratioP1;P1;durP2;ratioP2;P2;SDS_P1;SDS_P2;PMS_P1;PMS_P2;Temp;Humidity;BMP_temperature;BMP_pressure;BME280_temperature;BME280_humidity;BME280_pressure;Samples;Min_cycle;Max_cycle;Signal;HPM_P1;HPM_P2
2019/09/16 00:00:54;;;;;;;9.85;8.85;;;;;;;15.8;100;95757.59;;;;
2019/09/16 00:01:56;;;;;;;9.500001;8.799999;;;;;;;15.77;100;95757.17;;;;
2019/09/16 00:02:57;;;;;;;9.500001;8.799999;;;;;;;15.77;100;95757.17;;;;
2019/09/16 00:03:59;;;;;;;9.65;8.75;;;;;;;15.75;100;95751.57;;;;
2019/09/16 00:05:03;;;;;;;9.65;8.75;;;;;;;15.75;100;95751.57;;;;
2019/09/16 00:06:05;;;;;;;9.65;8.75;;;;;;;15.75;100;95751.57;;;;
2019/09/16 00:07:07;;;;;;;9.5;8.6;;;;;;;15.73;100;95748.81;;;;
2019/09/16 00:08:09;;;;;;;9.5;8.6;;;;;;;15.73;100;95748.81;;;;
2019/09/16 00:09:12;;;;;;;9.249999;8.4;;;;;;;15.7;100;95751.9;;;;
2019/09/16 00:10:15;;;;;;;9.249999;8.4;;;;;;;15.7;100;95751.9;;;;
2019/09/16 00:11:17;;;;;;;9.249999;8.4;;;;;;;15.7;100;95751.9;;;;
2019/09/16 00:12:22;;;;;;;9.4;8.5;;;;;;;15.69;100;95749.86;;;;
2019/09/16 00:13:45;;;;;;;9.4;8.5;;;;;;;15.69;100;95749.86;;;;
2019/09/16 00:14:47;;;;;;;9.4;8.6;;;;;;;15.67;100;95743.43;;;;
2019/09/16 00:15:48;;;;;;;9.4;8.6;;;;;;;15.67;100;95743.43;;;;
2019/09/16 00:16:49;;;;;;;9.4;8.6;;;;;;;15.67;100;95743.43;;;;
2019/09/16 00:17:51;;;;;;;9.9;9;;;;;;;15.65;100;95745.2;;;;
2019/09/16 00:18:52;;;;;;;9.9;9;;;;;;;15.65;100;95745.2;;;;
2019/09/16 00:19:56;;;;;;;9.949999;9.000002;;;;;;;15.63;100;95743.69;;;;
2019/09/16 00:20:57;;;;;;;9.949999;9.000002;;;;;;;15.63;100;95743.69;;;;
2019/09/16 00:21:59;;;;;;;9.949999;9.000002;;;;;;;15.63;100;95743.69;;;;
2019/09/16 00:23:00;;;;;;;10.05;9.199999;;;;;;;15.62;100;95749.66;;;;
2019/09/16 00:24:01;;;;;;;10.05;9.199999;;;;;;;15.62;100;95749.66;;;;
2019/09/16 00:25:03;;;;;;;10.05;9.15;;;;;;;15.61;100;95745.28;;;;
2019/09/16 00:26:05;;;;;;;10.05;9.15;;;;;;;15.61;100;95745.28;;;;
2019/09/16 00:27:07;;;;;;;10.05;9.15;;;;;;;15.61;100;95745.28;;;;
2019/09/16 00:28:08;;;;;;;9.150002;8.349999;;;;;;;15.6;100;95747.31;;;;
2019/09/16 00:29:09;;;;;;;9.150002;8.349999;;;;;;;15.6;100;95747.31;;;;
2019/09/16 00:30:10;;;;;;;9.150002;8.349999;;;;;;;15.6;100;95747.31;;;;
2019/09/16 00:31:13;;;;;;;10;9.200001;;;;;;;15.59;100;95747.05;;;;
2019/09/16 00:32:32;;;;;;;10;9.200001;;;;;;;15.59;100;95747.05;;;;
2019/09/16 00:33:33;;;;;;;10.1;9.25;;;;;;;15.57;100;95749.19;;;;
2019/09/16 00:34:35;;;;;;;10.1;9.25;;;;;;;15.57;100;95749.19;;;;
2019/09/16 00:35:36;;;;;;;10.05;9.199999;;;;;;;15.55;100;95750.4;;;;
2019/09/16 00:36:38;;;;;;;10.05;9.199999;;;;;;;15.55;100;95750.4;;;;
2019/09/16 00:37:40;;;;;;;10.05;9.199999;;;;;;;15.55;100;95750.4;;;;
2019/09/16 00:38:42;;;;;;;10;9.199999;;;;;;;15.53;100;95749.83;;;;
2019/09/16 00:39:43;;;;;;;10;9.199999;;;;;;;15.53;100;95749.83;;;;
2019/09/16 00:40:45;;;;;;;10;9.199999;;;;;;;15.53;100;95749.83;;;;
2019/09/16 00:41:46;;;;;;;9.6;8.799998;;;;;;;15.51;100;95751.14;;;;
2019/09/16 00:42:50;;;;;;;9.6;8.799998;;;;;;;15.51;100;95751.14;;;;
2019/09/16 00:43:52;;;;;;;9.950001;9.150001;;;;;;;15.48;100;95749.78;;;;
2019/09/16 00:44:56;;;;;;;9.950001;9.150001;;;;;;;15.48;100;95749.78;;;;
2019/09/16 00:45:57;;;;;;;9.950001;9.150001;;;;;;;15.48;100;95749.78;;;;
2019/09/16 00:46:59;;;;;;;10.3;9.400001;;;;;;;15.46;100;95760.63;;;;
2019/09/16 00:48:01;;;;;;;10.3;9.400001;;;;;;;15.46;100;95760.63;;;;
2019/09/16 00:49:03;;;;;;;9.049999;8.249999;;;;;;;15.43;100;95752.98;;;;
2019/09/16 00:50:05;;;;;;;9.049999;8.249999;;;;;;;15.43;100;95752.98;;;;
2019/09/16 00:51:07;;;;;;;9.049999;8.249999;;;;;;;15.43;100;95752.98;;;;
2019/09/16 00:52:09;;;;;;;9.200001;8.450001;;;;;;;15.4;100;95753.85;;;;
2019/09/16 00:53:11;;;;;;;9.200001;8.450001;;;;;;;15.4;100;95753.85;;;;
2019/09/16 00:54:12;;;;;;;10;9.099998;;;;;;;15.37;100;95756.14;;;;
2019/09/16 00:55:14;;;;;;;10;9.099998;;;;;;;15.37;100;95756.14;;;;
2019/09/16 00:56:16;;;;;;;10;9.099998;;;;;;;15.37;100;95756.14;;;;
2019/09/16 00:57:19;;;;;;;10.75;9.749998;;;;;;;15.35;100;95752.01;;;;
2019/09/16 00:58:20;;;;;;;10.75;9.749998;;;;;;;15.35;100;95752.01;;;;
2019/09/16 00:59:21;;;;;;;10.75;9.749998;;;;;;;15.35;100;95752.01;;;;
2019/09/16 01:00:23;;;;;;;10.2;9.299999;;;;;;;15.31;100;95740.97;;;;
2019/09/16 01:01:25;;;;;;;10.2;9.299999;;;;;;;15.31;100;95740.97;;;;
2019/09/16 01:02:27;;;;;;;9.9;9.050001;;;;;;;15.28;100;95737.78;;;;
2019/09/16 01:03:28;;;;;;;9.9;9.050001;;;;;;;15.28;100;95737.78;;;;
2019/09/16 01:04:29;;;;;;;9.9;9.050001;;;;;;;15.28;100;95737.78;;;;
2019/09/16 01:05:31;;;;;;;9.75;8.950002;;;;;;;15.24;100;95739.78;;;;
2019/09/16 01:06:33;;;;;;;9.75;8.950002;;;;;;;15.24;100;95739.78;;;;
2019/09/16 01:07:34;;;;;;;9.75;8.950002;;;;;;;15.24;100;95739.78;;;;
2019/09/16 01:08:36;;;;;;;9.75;8.950002;;;;;;;15.24;100;95739.78;;;;
2019/09/16 01:09:38;;;;;;;9.75;8.950002;;;;;;;15.24;100;95739.78;;;;
2019/09/16 01:10:39;;;;;;;9.75;8.950002;;;;;;;15.24;100;95739.78;;;;
2019/09/16 01:12:01;;;;;;;9.75;8.950002;;;;;;;15.24;100;95739.78;;;;
2019/09/16 01:13:02;;;;;;;9.75;8.950002;;;;;;;15.24;100;95739.78;;;;
2019/09/16 01:14:04;;;;;;;9.75;8.950002;;;;;;;15.24;100;95739.78;;;;
2019/09/16 01:15:07;;;;;;;9.75;8.950002;;;;;;;15.24;100;95739.78;;;;
2019/09/16 01:16:09;;;;;;;10;9.099998;;;;;;;14.8;100;95736.35;;;;
2019/09/16 01:17:10;;;;;;;10;9.099998;;;;;;;14.8;100;95736.35;;;;
2019/09/16 01:18:11;;;;;;;10.85;9.950001;;;;;;;14.76;100;95737.92;;;;
2019/09/16 01:19:13;;;;;;;10.85;9.950001;;;;;;;14.76;100;95737.92;;;;
2019/09/16 01:20:14;;;;;;;10.85;9.950001;;;;;;;14.76;100;95737.92;;;;
2019/09/16 01:21:16;;;;;;;10.2;9.349999;;;;;;;14.78;100;95733.04;;;;
2019/09/16 01:22:17;;;;;;;10.2;9.349999;;;;;;;14.78;100;95733.04;;;;
2019/09/16 01:23:18;;;;;;;10.35;9.550001;;;;;;;14.78;100;95731.58;;;;
2019/09/16 01:24:20;;;;;;;10.35;9.550001;;;;;;;14.78;100;95731.58;;;;
2019/09/16 01:25:21;;;;;;;10.35;9.550001;;;;;;;14.78;100;95731.58;;;;
2019/09/16 01:26:23;;;;;;;11.5;10.6;;;;;;;14.79;100;95730.08;;;;
2019/09/16 01:27:24;;;;;;;11.5;10.6;;;;;;;14.79;100;95730.08;;;;
2019/09/16 01:28:25;;;;;;;11.5;10.6;;;;;;;14.79;100;95730.08;;;;
2019/09/16 01:29:27;;;;;;;10.55;9.650002;;;;;;;14.8;100;95724.11;;;;
2019/09/16 01:30:28;;;;;;;10.55;9.650002;;;;;;;14.8;100;95724.11;;;;
2019/09/16 01:31:29;;;;;;;10.7;9.699999;;;;;;;14.8;100;95723.17;;;;
2019/09/16 01:32:31;;;;;;;10.7;9.699999;;;;;;;14.8;100;95723.17;;;;
2019/09/16 01:33:32;;;;;;;10.7;9.699999;;;;;;;14.8;100;95723.17;;;;
2019/09/16 01:34:33;;;;;;;12.65;11.35;;;;;;;14.8;100;95719.92;;;;
2019/09/16 01:35:34;;;;;;;12.65;11.35;;;;;;;14.8;100;95719.92;;;;
2019/09/16 01:36:36;;;;;;;12.65;11.35;;;;;;;14.8;100;95719.92;;;;
2019/09/16 01:37:37;;;;;;;12.65;11.35;;;;;;;14.8;100;95719.92;;;;
2019/09/16 01:38:38;;;;;;;12.65;11.35;;;;;;;14.8;100;95719.92;;;;
2019/09/16 01:39:40;;;;;;;12.65;11.35;;;;;;;14.8;100;95719.92;;;;
2019/09/16 01:40:41;;;;;;;12.65;11.35;;;;;;;14.8;100;95719.92;;;;
2019/09/16 01:41:47;;;;;;;12.65;11.35;;;;;;;14.8;100;95719.92;;;;
2019/09/16 01:42:50;;;;;;;12.65;11.35;;;;;;;14.8;100;95719.92;;;;
2019/09/16 01:43:51;;;;;;;12.65;11.35;;;;;;;14.8;100;95719.92;;;;
2019/09/16 01:44:53;;;;;;;11.1;10.1;;;;;;;14.54;100;95702.55;;;;
2019/09/16 01:45:54;;;;;;;11.1;10.1;;;;;;;14.54;100;95702.55;;;;
2019/09/16 01:46:58;;;;;;;11.1;10.1;;;;;;;14.54;100;95702.55;;;;
2019/09/16 01:47:59;;;;;;;11.6;10.6;;;;;;;14.54;100;95700.24;;;;
2019/09/16 01:49:01;;;;;;;11.6;10.6;;;;;;;14.54;100;95700.24;;;;
2019/09/16 01:50:02;;;;;;;13.55;12.15;;;;;;;14.59;100;95704.8;;;;
2019/09/16 01:51:04;;;;;;;13.55;12.15;;;;;;;14.59;100;95704.8;;;;
2019/09/16 01:52:05;;;;;;;13.55;12.15;;;;;;;14.59;100;95704.8;;;;
2019/09/16 01:53:07;;;;;;;11.75;10.75;;;;;;;14.63;100;95700.51;;;;
2019/09/16 01:54:08;;;;;;;11.75;10.75;;;;;;;14.63;100;95700.51;;;;
2019/09/16 01:55:10;;;;;;;11.75;10.75;;;;;;;14.63;100;95700.51;;;;
2019/09/16 01:56:12;;;;;;;11.75;10.75;;;;;;;14.63;100;95700.51;;;;
2019/09/16 01:57:13;;;;;;;11.75;10.75;;;;;;;14.63;100;95700.51;;;;
2019/09/16 01:58:14;;;;;;;11.75;10.75;;;;;;;14.63;100;95700.51;;;;
2019/09/16 01:59:15;;;;;;;11.75;10.75;;;;;;;14.63;100;95700.51;;;;
2019/09/16 02:00:16;;;;;;;11.75;10.75;;;;;;;14.63;100;95700.51;;;;
2019/09/16 02:01:19;;;;;;;11.75;10.75;;;;;;;14.63;100;95700.51;;;;
2019/09/16 02:02:26;;;;;;;11.75;10.75;;;;;;;14.63;100;95700.51;;;;
2019/09/16 02:03:28;;;;;;;11.3;10.15;;;;;;;14.38;100;95704.75;;;;
2019/09/16 02:04:29;;;;;;;11.3;10.15;;;;;;;14.38;100;95704.75;;;;
2019/09/16 02:05:30;;;;;;;11.3;10.15;;;;;;;14.38;100;95704.75;;;;
2019/09/16 02:06:31;;;;;;;12.2;11.05;;;;;;;14.38;100;95707.06;;;;
2019/09/16 02:07:33;;;;;;;12.2;11.05;;;;;;;14.38;100;95707.06;;;;
2019/09/16 02:08:34;;;;;;;12.2;11.05;;;;;;;14.38;100;95707.06;;;;
2019/09/16 02:09:35;;;;;;;12.2;11.05;;;;;;;14.38;100;95707.06;;;;
2019/09/16 02:10:36;;;;;;;12.2;11.05;;;;;;;14.38;100;95707.06;;;;
2019/09/16 02:11:38;;;;;;;12.2;11.05;;;;;;;14.38;100;95707.06;;;;
2019/09/16 02:12:42;;;;;;;12.2;11.05;;;;;;;14.38;100;95707.06;;;;
2019/09/16 02:13:44;;;;;;;12.2;11.05;;;;;;;14.38;100;95707.06;;;;
2019/09/16 02:14:45;;;;;;;12.2;11.05;;;;;;;14.38;100;95707.06;;;;
2019/09/16 02:15:46;;;;;;;12.2;11.05;;;;;;;14.38;100;95707.06;;;;
2019/09/16 02:16:47;;;;;;;11.65;10.65;;;;;;;14.22;100;95702.32;;;;
2019/09/16 02:17:49;;;;;;;11.65;10.65;;;;;;;14.22;100;95702.32;;;;
2019/09/16 02:18:50;;;;;;;11.5;10.45;;;;;;;14.24;100;95696.22;;;;
2019/09/16 02:19:51;;;;;;;11.5;10.45;;;;;;;14.24;100;95696.22;;;;
2019/09/16 02:20:52;;;;;;;11.5;10.45;;;;;;;14.24;100;95696.22;;;;
2019/09/16 02:21:54;;;;;;;11.5;10.45;;;;;;;14.24;100;95696.22;;;;
2019/09/16 02:22:55;;;;;;;11.5;10.45;;;;;;;14.24;100;95696.22;;;;
2019/09/16 02:23:56;;;;;;;11.5;10.45;;;;;;;14.24;100;95696.22;;;;
2019/09/16 02:24:58;;;;;;;11.5;10.45;;;;;;;14.24;100;95696.22;;;;
2019/09/16 02:25:59;;;;;;;11.5;10.45;;;;;;;14.24;100;95696.22;;;;
2019/09/16 02:27:00;;;;;;;11.5;10.45;;;;;;;14.24;100;95696.22;;;;
2019/09/16 02:28:01;;;;;;;11.5;10.45;;;;;;;14.24;100;95696.22;;;;
2019/09/16 02:29:02;;;;;;;11.5;10.45;;;;;;;14.24;100;95696.22;;;;
2019/09/16 02:30:05;;;;;;;13.25;12;;;;;;;14.12;100;95686.83;;;;
2019/09/16 02:31:07;;;;;;;13.25;12;;;;;;;14.12;100;95686.83;;;;
2019/09/16 02:32:36;;;;;;;13.6;12.3;;;;;;;14.16;100;95692.44;;;;
2019/09/16 02:33:37;;;;;;;13.6;12.3;;;;;;;14.16;100;95692.44;;;;
2019/09/16 02:34:38;;;;;;;13.6;12.3;;;;;;;14.16;100;95692.44;;;;
2019/09/16 02:35:40;;;;;;;13.6;12.3;;;;;;;14.16;100;95692.44;;;;
2019/09/16 02:36:41;;;;;;;13.6;12.3;;;;;;;14.16;100;95692.44;;;;
2019/09/16 02:37:42;;;;;;;13.6;12.3;;;;;;;14.16;100;95692.44;;;;
2019/09/16 02:38:43;;;;;;;13.6;12.3;;;;;;;14.16;100;95692.44;;;;
2019/09/16 02:39:45;;;;;;;13.6;12.3;;;;;;;14.16;100;95692.44;;;;
2019/09/16 02:40:46;;;;;;;13.6;12.3;;;;;;;14.16;100;95692.44;;;;
2019/09/16 02:41:47;;;;;;;13.6;12.3;;;;;;;14.16;100;95692.44;;;;
2019/09/16 02:42:49;;;;;;;12.85;11.75;;;;;;;14.1;100;95678.52;;;;
2019/09/16 02:43:50;;;;;;;12.85;11.75;;;;;;;14.1;100;95678.52;;;;
2019/09/16 02:44:52;;;;;;;12.85;11.75;;;;;;;14.1;100;95678.52;;;;
2019/09/16 02:45:53;;;;;;;13.7;12.35;;;;;;;14.14;100;95680.19;;;;
2019/09/16 02:46:54;;;;;;;13.7;12.35;;;;;;;14.14;100;95680.19;;;;
2019/09/16 02:47:56;;;;;;;13.7;12.35;;;;;;;14.14;100;95680.19;;;;
2019/09/16 02:48:57;;;;;;;13.7;12.35;;;;;;;14.14;100;95680.19;;;;
2019/09/16 02:49:58;;;;;;;13.7;12.35;;;;;;;14.14;100;95680.19;;;;
2019/09/16 02:50:59;;;;;;;13.7;12.35;;;;;;;14.14;100;95680.19;;;;
2019/09/16 02:52:15;;;;;;;13.7;12.35;;;;;;;14.14;100;95680.19;;;;
2019/09/16 02:53:16;;;;;;;13.7;12.35;;;;;;;14.14;100;95680.19;;;;
2019/09/16 02:54:17;;;;;;;13.7;12.35;;;;;;;14.14;100;95680.19;;;;
2019/09/16 02:55:18;;;;;;;13.7;12.35;;;;;;;14.14;100;95680.19;;;;
2019/09/16 02:56:20;;;;;;;12.35;11.25;;;;;;;14.05;100;95670.68;;;;
2019/09/16 02:57:22;;;;;;;12.35;11.25;;;;;;;14.05;100;95670.68;;;;
2019/09/16 02:58:23;;;;;;;12.35;11.25;;;;;;;14.05;100;95670.68;;;;
2019/09/16 02:59:24;;;;;;;12.5;11.4;;;;;;;14.09;100;95664.62;;;;
2019/09/16 03:00:25;;;;;;;12.5;11.4;;;;;;;14.09;100;95664.62;;;;
2019/09/16 03:01:27;;;;;;;12.5;11.4;;;;;;;14.09;100;95664.62;;;;
2019/09/16 03:02:28;;;;;;;12.5;11.4;;;;;;;14.09;100;95664.62;;;;
2019/09/16 03:03:29;;;;;;;12.5;11.4;;;;;;;14.09;100;95664.62;;;;
2019/09/16 03:04:31;;;;;;;12.5;11.4;;;;;;;14.09;100;95664.62;;;;
2019/09/16 03:05:32;;;;;;;12.5;11.4;;;;;;;14.09;100;95664.62;;;;
2019/09/16 03:06:33;;;;;;;12.5;11.4;;;;;;;14.09;100;95664.62;;;;
2019/09/16 03:07:35;;;;;;;12.5;11.4;;;;;;;14.09;100;95664.62;;;;
2019/09/16 03:08:36;;;;;;;12.5;11.4;;;;;;;14.09;100;95664.62;;;;
2019/09/16 03:09:37;;;;;;;13.9;12.6;;;;;;;14;100;95657.56;;;;
2019/09/16 03:10:38;;;;;;;13.9;12.6;;;;;;;14;100;95657.56;;;;
2019/09/16 03:11:39;;;;;;;13.9;12.6;;;;;;;14;100;95657.56;;;;
2019/09/16 03:12:41;;;;;;;15;13.75;;;;;;;14.05;100;95661.7;;;;
2019/09/16 03:13:42;;;;;;;15;13.75;;;;;;;14.05;100;95661.7;;;;
2019/09/16 03:14:43;;;;;;;15;13.75;;;;;;;14.05;100;95661.7;;;;
2019/09/16 03:15:45;;;;;;;15;13.75;;;;;;;14.05;100;95661.7;;;;
2019/09/16 03:16:46;;;;;;;15;13.75;;;;;;;14.05;100;95661.7;;;;
2019/09/16 03:17:47;;;;;;;15;13.75;;;;;;;14.05;100;95661.7;;;;
2019/09/16 03:18:48;;;;;;;15;13.75;;;;;;;14.05;100;95661.7;;;;
2019/09/16 03:19:50;;;;;;;15;13.75;;;;;;;14.05;100;95661.7;;;;
2019/09/16 03:20:51;;;;;;;15;13.75;;;;;;;14.05;100;95661.7;;;;
2019/09/16 03:21:52;;;;;;;15;13.75;;;;;;;14.05;100;95661.7;;;;
2019/09/16 03:22:53;;;;;;;14.15;12.85;;;;;;;14.07;100;95659.04;;;;
2019/09/16 03:23:54;;;;;;;14.15;12.85;;;;;;;14.07;100;95659.04;;;;
2019/09/16 03:24:56;;;;;;;14.15;12.85;;;;;;;14.07;100;95659.04;;;;
2019/09/16 03:25:57;;;;;;;13.15;12.05;;;;;;;14.14;100;95656.56;;;;
2019/09/16 03:27:01;;;;;;;13.15;12.05;;;;;;;14.14;100;95656.56;;;;
2019/09/16 03:28:02;;;;;;;13.15;12.05;;;;;;;14.14;100;95656.56;;;;
2019/09/16 03:29:03;;;;;;;13.15;12.05;;;;;;;14.14;100;95656.56;;;;
2019/09/16 03:30:05;;;;;;;13.15;12.05;;;;;;;14.14;100;95656.56;;;;
2019/09/16 03:31:07;;;;;;;13.15;12.05;;;;;;;14.14;100;95656.56;;;;
2019/09/16 03:32:26;;;;;;;13.15;12.05;;;;;;;14.14;100;95656.56;;;;
2019/09/16 03:33:27;;;;;;;13.15;12.05;;;;;;;14.14;100;95656.56;;;;
2019/09/16 03:34:28;;;;;;;13.15;12.05;;;;;;;14.14;100;95656.56;;;;
2019/09/16 03:35:29;;;;;;;13.15;12.05;;;;;;;14.14;100;95656.56;;;;
2019/09/16 03:36:30;;;;;;;12.15;10.95;;;;;;;14.13;100;95650.44;;;;
2019/09/16 03:37:32;;;;;;;12.15;10.95;;;;;;;14.13;100;95650.44;;;;
2019/09/16 03:38:33;;;;;;;13.6;12.35;;;;;;;14.17;100;95646.15;;;;
2019/09/16 03:39:35;;;;;;;13.6;12.35;;;;;;;14.17;100;95646.15;;;;
2019/09/16 03:40:36;;;;;;;13.6;12.35;;;;;;;14.17;100;95646.15;;;;
2019/09/16 03:41:38;;;;;;;13.6;12.35;;;;;;;14.17;100;95646.15;;;;
2019/09/16 03:42:40;;;;;;;13.6;12.35;;;;;;;14.17;100;95646.15;;;;
2019/09/16 03:43:41;;;;;;;13.6;12.35;;;;;;;14.17;100;95646.15;;;;
2019/09/16 03:44:42;;;;;;;13.6;12.35;;;;;;;14.17;100;95646.15;;;;
2019/09/16 03:45:44;;;;;;;13.6;12.35;;;;;;;14.17;100;95646.15;;;;
2019/09/16 03:46:45;;;;;;;13.6;12.35;;;;;;;14.17;100;95646.15;;;;
2019/09/16 03:47:47;;;;;;;13.6;12.35;;;;;;;14.17;100;95646.15;;;;
2019/09/16 03:48:48;;;;;;;13.6;12.35;;;;;;;14.17;100;95646.15;;;;
2019/09/16 03:49:49;;;;;;;13;11.9;;;;;;;14.14;100;95646.25;;;;
2019/09/16 03:50:50;;;;;;;13;11.9;;;;;;;14.14;100;95646.25;;;;
2019/09/16 03:51:51;;;;;;;13.45;12.25;;;;;;;14.19;100;95644.02;;;;
2019/09/16 03:52:52;;;;;;;13.45;12.25;;;;;;;14.19;100;95644.02;;;;
2019/09/16 03:53:54;;;;;;;13.45;12.25;;;;;;;14.19;100;95644.02;;;;
2019/09/16 03:54:55;;;;;;;13.45;12.25;;;;;;;14.19;100;95644.02;;;;
2019/09/16 03:55:56;;;;;;;13.45;12.25;;;;;;;14.19;100;95644.02;;;;
2019/09/16 03:56:58;;;;;;;13.45;12.25;;;;;;;14.19;100;95644.02;;;;
2019/09/16 03:57:59;;;;;;;13.45;12.25;;;;;;;14.19;100;95644.02;;;;
2019/09/16 03:59:00;;;;;;;13.45;12.25;;;;;;;14.19;100;95644.02;;;;
2019/09/16 04:00:02;;;;;;;13.45;12.25;;;;;;;14.19;100;95644.02;;;;
2019/09/16 04:01:05;;;;;;;13.45;12.25;;;;;;;14.19;100;95644.02;;;;
2019/09/16 04:02:07;;;;;;;13.25;12.05;;;;;;;14.19;100;95638.97;;;;
2019/09/16 04:03:08;;;;;;;13.25;12.05;;;;;;;14.19;100;95638.97;;;;
2019/09/16 04:04:10;;;;;;;13.25;12.05;;;;;;;14.19;100;95638.97;;;;
2019/09/16 04:05:11;;;;;;;13.25;12.05;;;;;;;14.19;100;95638.97;;;;
2019/09/16 04:06:13;;;;;;;13.25;12.05;;;;;;;14.19;100;95638.97;;;;
2019/09/16 04:07:19;;;;;;;13.25;12.05;;;;;;;14.19;100;95638.97;;;;
2019/09/16 04:08:56;;;;;;;13.25;12.05;;;;;;;14.19;100;95638.97;;;;
2019/09/16 04:10:20;;;;;;;13.25;12.05;;;;;;;14.19;100;95638.97;;;;
2019/09/16 04:11:22;;;;;;;13.25;12.05;;;;;;;14.19;100;95638.97;;;;
2019/09/16 04:12:23;;;;;;;13.25;12.05;;;;;;;14.19;100;95638.97;;;;
2019/09/16 04:13:24;;;;;;;13.75;12.5;;;;;;;14.26;100;95631.08;;;;
2019/09/16 04:14:25;;;;;;;13.75;12.5;;;;;;;14.26;100;95631.08;;;;
2019/09/16 04:15:27;;;;;;;13.75;12.5;;;;;;;14.26;100;95631.08;;;;
2019/09/16 04:16:28;;;;;;;13.75;12.5;;;;;;;14.26;100;95631.08;;;;
2019/09/16 04:17:29;;;;;;;13.75;12.5;;;;;;;14.26;100;95631.08;;;;
2019/09/16 04:18:31;;;;;;;13.75;12.5;;;;;;;14.26;100;95631.08;;;;
2019/09/16 04:19:32;;;;;;;13.75;12.5;;;;;;;14.26;100;95631.08;;;;
2019/09/16 04:20:33;;;;;;;13.75;12.5;;;;;;;14.26;100;95631.08;;;;
2019/09/16 04:22:04;;;;;;;13.75;12.5;;;;;;;14.26;100;95631.08;;;;
2019/09/16 04:23:05;;;;;;;13.75;12.5;;;;;;;14.26;100;95631.08;;;;
2019/09/16 04:24:06;;;;;;;12.25;11.1;;;;;;;14.22;100;95624.91;;;;
2019/09/16 04:25:08;;;;;;;12.25;11.1;;;;;;;14.22;100;95624.91;;;;
2019/09/16 04:26:10;;;;;;;12.25;11.1;;;;;;;14.22;100;95624.91;;;;
2019/09/16 04:27:12;;;;;;;12.25;11.1;;;;;;;14.22;100;95624.91;;;;
2019/09/16 04:28:13;;;;;;;12.25;11.1;;;;;;;14.22;100;95624.91;;;;
2019/09/16 04:29:14;;;;;;;12.25;11.1;;;;;;;14.22;100;95624.91;;;;
2019/09/16 04:30:15;;;;;;;12.25;11.1;;;;;;;14.22;100;95624.91;;;;
2019/09/16 04:31:18;;;;;;;12.25;11.1;;;;;;;14.22;100;95624.91;;;;
2019/09/16 04:32:19;;;;;;;12.25;11.1;;;;;;;14.22;100;95624.91;;;;
2019/09/16 04:33:20;;;;;;;12.25;11.1;;;;;;;14.22;100;95624.91;;;;
2019/09/16 04:34:21;;;;;;;11.5;10.5;;;;;;;14.23;100;95623.03;;;;
2019/09/16 04:35:22;;;;;;;11.5;10.5;;;;;;;14.23;100;95623.03;;;;
2019/09/16 04:36:24;;;;;;;11.5;10.5;;;;;;;14.23;100;95623.03;;;;
2019/09/16 04:37:25;;;;;;;11.5;10.5;;;;;;;14.23;100;95623.03;;;;
2019/09/16 04:38:26;;;;;;;11.5;10.5;;;;;;;14.23;100;95623.03;;;;
2019/09/16 04:39:30;;;;;;;11.5;10.5;;;;;;;14.23;100;95623.03;;;;
2019/09/16 04:40:31;;;;;;;11.5;10.5;;;;;;;14.23;100;95623.03;;;;
2019/09/16 04:41:33;;;;;;;11.5;10.5;;;;;;;14.23;100;95623.03;;;;
2019/09/16 04:42:34;;;;;;;11.5;10.5;;;;;;;14.23;100;95623.03;;;;
2019/09/16 04:43:35;;;;;;;11.5;10.5;;;;;;;14.23;100;95623.03;;;;
2019/09/16 04:44:36;;;;;;;12.3;11.2;;;;;;;14.22;100;95623.55;;;;
2019/09/16 04:45:37;;;;;;;12.3;11.2;;;;;;;14.22;100;95623.55;;;;
2019/09/16 04:46:38;;;;;;;12.3;11.2;;;;;;;14.22;100;95623.55;;;;
2019/09/16 04:47:40;;;;;;;12.3;11.2;;;;;;;14.22;100;95623.55;;;;
2019/09/16 04:48:41;;;;;;;12.3;11.2;;;;;;;14.22;100;95623.55;;;;
2019/09/16 04:49:42;;;;;;;12.3;11.2;;;;;;;14.22;100;95623.55;;;;
2019/09/16 04:50:43;;;;;;;12.3;11.2;;;;;;;14.22;100;95623.55;;;;
2019/09/16 04:51:45;;;;;;;12.3;11.2;;;;;;;14.22;100;95623.55;;;;
2019/09/16 04:52:46;;;;;;;12.3;11.2;;;;;;;14.22;100;95623.55;;;;
2019/09/16 04:53:47;;;;;;;12.3;11.2;;;;;;;14.22;100;95623.55;;;;
2019/09/16 04:54:48;;;;;;;12.3;11.2;;;;;;;14.22;100;95623.55;;;;
2019/09/16 04:55:49;;;;;;;11.1;10.2;;;;;;;14.28;100;95618.64;;;;
2019/09/16 04:56:50;;;;;;;11.1;10.2;;;;;;;14.28;100;95618.64;;;;
2019/09/16 04:57:52;;;;;;;11.1;10.2;;;;;;;14.28;100;95618.64;;;;
2019/09/16 04:58:53;;;;;;;11.1;10.2;;;;;;;14.28;100;95618.64;;;;
2019/09/16 04:59:54;;;;;;;11.1;10.2;;;;;;;14.28;100;95618.64;;;;
2019/09/16 05:00:55;;;;;;;11.1;10.2;;;;;;;14.28;100;95618.64;;;;
2019/09/16 05:02:06;;;;;;;11.1;10.2;;;;;;;14.28;100;95618.64;;;;
2019/09/16 05:03:07;;;;;;;11.1;10.2;;;;;;;14.28;100;95618.64;;;;
2019/09/16 05:04:08;;;;;;;11.1;10.2;;;;;;;14.28;100;95618.64;;;;
2019/09/16 05:05:09;;;;;;;11.1;10.2;;;;;;;14.28;100;95618.64;;;;
2019/09/16 05:06:11;;;;;;;11.75;10.65;;;;;;;14.2;100;95610.35;;;;
2019/09/16 05:07:13;;;;;;;11.75;10.65;;;;;;;14.2;100;95610.35;;;;
2019/09/16 05:08:15;;;;;;;11.75;10.65;;;;;;;14.2;100;95610.35;;;;
2019/09/16 05:09:16;;;;;;;11.75;10.65;;;;;;;14.2;100;95610.35;;;;
2019/09/16 05:10:17;;;;;;;11.75;10.65;;;;;;;14.2;100;95610.35;;;;
2019/09/16 05:11:19;;;;;;;11.75;10.65;;;;;;;14.2;100;95610.35;;;;
2019/09/16 05:12:20;;;;;;;11.75;10.65;;;;;;;14.2;100;95610.35;;;;
2019/09/16 05:13:22;;;;;;;11.75;10.65;;;;;;;14.2;100;95610.35;;;;
2019/09/16 05:14:23;;;;;;;11.75;10.65;;;;;;;14.2;100;95610.35;;;;
2019/09/16 05:15:24;;;;;;;11.75;10.65;;;;;;;14.2;100;95610.35;;;;
2019/09/16 05:16:26;;;;;;;11.5;10.3;;;;;;;14.18;100;95612.48;;;;
2019/09/16 05:17:28;;;;;;;11.5;10.3;;;;;;;14.18;100;95612.48;;;;
2019/09/16 05:18:29;;;;;;;11.5;10.3;;;;;;;14.18;100;95612.48;;;;
2019/09/16 05:19:30;;;;;;;11.5;10.3;;;;;;;14.18;100;95612.48;;;;
2019/09/16 05:20:32;;;;;;;11.5;10.3;;;;;;;14.18;100;95612.48;;;;
2019/09/16 05:21:45;;;;;;;11.5;10.3;;;;;;;14.18;100;95612.48;;;;
2019/09/16 05:22:46;;;;;;;11.5;10.3;;;;;;;14.18;100;95612.48;;;;
2019/09/16 05:23:47;;;;;;;11.5;10.3;;;;;;;14.18;100;95612.48;;;;
2019/09/16 05:24:49;;;;;;;11.5;10.3;;;;;;;14.18;100;95612.48;;;;
2019/09/16 05:25:50;;;;;;;11.5;10.3;;;;;;;14.18;100;95612.48;;;;
2019/09/16 05:26:51;;;;;;;11.5;10.3;;;;;;;14.18;100;95612.48;;;;
2019/09/16 05:27:53;;;;;;;11.15;10.05;;;;;;;14.24;100;95610.13;;;;
2019/09/16 05:28:54;;;;;;;11.15;10.05;;;;;;;14.24;100;95610.13;;;;
2019/09/16 05:29:56;;;;;;;11.15;10.05;;;;;;;14.24;100;95610.13;;;;
2019/09/16 05:30:57;;;;;;;11.15;10.05;;;;;;;14.24;100;95610.13;;;;
2019/09/16 05:31:59;;;;;;;11.15;10.05;;;;;;;14.24;100;95610.13;;;;
2019/09/16 05:33:01;;;;;;;11.15;10.05;;;;;;;14.24;100;95610.13;;;;
2019/09/16 05:34:02;;;;;;;11.15;10.05;;;;;;;14.24;100;95610.13;;;;
2019/09/16 05:35:03;;;;;;;11.15;10.05;;;;;;;14.24;100;95610.13;;;;
2019/09/16 05:36:05;;;;;;;11.15;10.05;;;;;;;14.24;100;95610.13;;;;
2019/09/16 05:37:07;;;;;;;11.15;10.05;;;;;;;14.24;100;95610.13;;;;
2019/09/16 05:38:08;;;;;;;10.1;9.1;;;;;;;14.51;100;95615.69;;;;
2019/09/16 05:39:09;;;;;;;10.1;9.1;;;;;;;14.51;100;95615.69;;;;
2019/09/16 05:40:10;;;;;;;10.1;9.1;;;;;;;14.51;100;95615.69;;;;
2019/09/16 05:41:12;;;;;;;10.1;9.1;;;;;;;14.51;100;95615.69;;;;
2019/09/16 05:42:13;;;;;;;10.1;9.1;;;;;;;14.51;100;95615.69;;;;
2019/09/16 05:43:14;;;;;;;10.1;9.1;;;;;;;14.51;100;95615.69;;;;
2019/09/16 05:44:15;;;;;;;10.1;9.1;;;;;;;14.51;100;95615.69;;;;
2019/09/16 05:45:17;;;;;;;10.1;9.1;;;;;;;14.51;100;95615.69;;;;
2019/09/16 05:46:18;;;;;;;10.1;9.1;;;;;;;14.51;100;95615.69;;;;
2019/09/16 05:47:19;;;;;;;10.1;9.1;;;;;;;14.51;100;95615.69;;;;
2019/09/16 05:48:20;;;;;;;9.849999;9.050001;;;;;;;14.84;100;95615.95;;;;
2019/09/16 05:49:22;;;;;;;9.849999;9.050001;;;;;;;14.84;100;95615.95;;;;
2019/09/16 05:50:23;;;;;;;9.849999;9.050001;;;;;;;14.84;100;95615.95;;;;
2019/09/16 05:51:30;;;;;;;9.849999;9.050001;;;;;;;14.84;100;95615.95;;;;
2019/09/16 05:52:48;;;;;;;9.849999;9.050001;;;;;;;14.84;100;95615.95;;;;
2019/09/16 05:53:50;;;;;;;9.849999;9.050001;;;;;;;14.84;100;95615.95;;;;
2019/09/16 05:54:51;;;;;;;9.849999;9.050001;;;;;;;14.84;100;95615.95;;;;
2019/09/16 05:55:52;;;;;;;9.849999;9.050001;;;;;;;14.84;100;95615.95;;;;
2019/09/16 05:56:53;;;;;;;9.849999;9.050001;;;;;;;14.84;100;95615.95;;;;
2019/09/16 05:57:54;;;;;;;9.849999;9.050001;;;;;;;14.84;100;95615.95;;;;
2019/09/16 05:58:55;;;;;;;10.4;9.4;;;;;;;15.47;100;95614.9;;;;
2019/09/16 05:59:57;;;;;;;10.4;9.4;;;;;;;15.47;100;95614.9;;;;
2019/09/16 06:00:58;;;;;;;10.4;9.4;;;;;;;15.47;100;95614.9;;;;
2019/09/16 06:02:16;;;;;;;10.4;9.4;;;;;;;15.47;100;95614.9;;;;
2019/09/16 06:03:18;;;;;;;10.4;9.4;;;;;;;15.47;100;95614.9;;;;
2019/09/16 06:04:19;;;;;;;10.4;9.4;;;;;;;15.47;100;95614.9;;;;
2019/09/16 06:05:20;;;;;;;10.4;9.4;;;;;;;15.47;100;95614.9;;;;
2019/09/16 06:06:21;;;;;;;10.4;9.4;;;;;;;15.47;100;95614.9;;;;
2019/09/16 06:07:23;;;;;;;10.4;9.4;;;;;;;15.47;100;95614.9;;;;
2019/09/16 06:08:24;;;;;;;10.4;9.4;;;;;;;15.47;100;95614.9;;;;
2019/09/16 06:09:25;;;;;;;8.700001;7.9;;;;;;;16.07;100;95619.89;;;;
2019/09/16 06:10:26;;;;;;;8.700001;7.9;;;;;;;16.07;100;95619.89;;;;
2019/09/16 06:11:28;;;;;;;8.700001;7.9;;;;;;;16.07;100;95619.89;;;;